Time,TemperatureF,DewpointF,PressureIn,WindDirection,WindDirectionDegrees,WindSpeedMPH,WindSpeedGustMPH,Humidity,HourlyPrecipIn,Conditions,Clouds,dailyrainin,SoftwareType,DateUTC
2013-06-25 00:02:00,73.0,66.0,30.01,SSW,197,2.0,2.0,79,0.00,,,0.00,,2013-06-25 04:02:00,
2013-06-25 00:11:00,73.0,67.0,30.01,South,182,0.0,0.0,81,0.00,,,0.00,,2013-06-25 04:11:00,
2013-06-25 00:22:00,73.0,67.0,30.00,South,186,2.0,3.0,81,0.00,,,0.00,,2013-06-25 04:22:00,
2013-06-25 00:34:00,73.0,67.0,29.99,SSW,206,3.0,6.0,82,0.00,,,0.00,,2013-06-25 04:34:00,
2013-06-25 00:43:00,72.0,66.0,29.98,SSW,204,5.0,5.0,82,0.00,,,0.00,,2013-06-25 04:43:00,
2013-06-25 00:52:00,72.0,67.0,29.99,South,182,0.0,0.0,84,0.00,,,0.00,,2013-06-25 04:52:00,
2013-06-25 01:22:00,72.0,68.0,30.00,SSW,193,0.0,0.0,87,0.00,,,0.00,,2013-06-25 05:22:00,
2013-06-25 01:32:00,71.0,67.0,30.01,SSW,193,0.0,0.0,87,0.00,,,0.00,,2013-06-25 05:32:00,
2013-06-25 01:44:00,71.0,67.0,30.00,SSW,193,0.0,0.0,87,0.00,,,0.00,,2013-06-25 05:44:00,
2013-06-25 01:52:00,71.0,67.0,29.99,SW,219,0.0,0.0,88,0.00,,,0.00,,2013-06-25 05:52:00,
2013-06-25 02:01:00,71.0,67.0,29.99,SW,229,0.0,5.0,88,0.00,,,0.00,,2013-06-25 06:01:00,
2013-06-25 02:11:00,71.0,68.0,29.99,SSW,199,2.0,3.0,90,0.00,,,0.00,,2013-06-25 06:11:00,
2013-06-25 02:43:00,70.0,68.0,29.99,SW,228,2.0,5.0,92,0.00,,,0.00,,2013-06-25 06:43:00,
2013-06-25 02:52:00,70.0,68.0,29.99,SW,228,2.0,5.0,92,0.00,,,0.00,,2013-06-25 06:52:00,
2013-06-25 03:02:00,70.0,68.0,29.98,SSE,161,0.0,0.0,93,0.00,,,0.00,,2013-06-25 07:02:00,
2013-06-25 03:11:00,70.0,68.0,29.98,SSE,161,0.0,0.0,93,0.00,,,0.00,,2013-06-25 07:11:00,
2013-06-25 03:22:00,70.0,68.0,29.97,SW,225,3.0,5.0,93,0.00,,,0.00,,2013-06-25 07:22:00,
2013-06-25 03:33:00,69.0,67.0,29.96,WSW,242,2.0,5.0,93,0.00,,,0.00,,2013-06-25 07:33:00,
2013-06-25 03:43:00,69.0,67.0,29.96,West,271,1.0,3.0,93,0.00,,,0.00,,2013-06-25 07:43:00,
2013-06-25 03:52:00,69.0,68.0,29.96,West,265,0.0,0.0,95,0.00,,,0.00,,2013-06-25 07:52:00,
2013-06-25 04:02:00,69.0,68.0,29.96,WSW,252,3.0,5.0,95,0.00,,,0.00,,2013-06-25 08:02:00,
2013-06-25 04:11:00,69.0,68.0,29.96,SW,230,2.0,5.0,95,0.00,,,0.00,,2013-06-25 08:11:00,
2013-06-25 04:34:00,69.0,68.0,29.96,WSW,239,0.0,0.0,95,0.00,,,0.00,,2013-06-25 08:34:00,
2013-06-25 04:43:00,69.0,68.0,29.96,WSW,239,0.0,0.0,95,0.00,,,0.00,,2013-06-25 08:43:00,
2013-06-25 04:53:00,69.0,68.0,29.96,WSW,239,0.0,0.0,95,0.00,,,0.00,,2013-06-25 08:53:00,
2013-06-25 05:43:00,68.0,67.0,29.97,WSW,239,0.0,0.0,95,0.00,,,0.00,,2013-06-25 09:43:00,
2013-06-25 05:52:00,68.0,67.0,29.97,WSW,239,0.0,0.0,95,0.00,,,0.00,,2013-06-25 09:52:00,
2013-06-25 06:01:00,68.0,67.0,29.98,WSW,239,0.0,0.0,95,0.00,,,0.00,,2013-06-25 10:01:00,
2013-06-25 06:42:00,68.0,67.0,29.99,WSW,239,0.0,0.0,95,0.00,,,0.00,,2013-06-25 10:42:00,
2013-06-25 06:52:00,68.0,67.0,29.98,WSW,239,0.0,0.0,95,0.00,,,0.00,,2013-06-25 10:52:00,
2013-06-25 08:02:00,69.0,68.0,29.99,WSW,243,0.0,3.0,95,0.00,,,0.00,,2013-06-25 12:02:00,
2013-06-25 08:33:00,70.0,68.0,29.98,SW,229,1.0,5.0,95,0.00,,,0.00,,2013-06-25 12:33:00,
2013-06-25 09:53:00,76.0,74.0,29.98,West,261,0.0,0.0,92,0.00,,,0.00,,2013-06-25 13:53:00,
2013-06-25 10:01:00,77.0,73.0,29.98,WSW,251,0.0,0.0,88,0.00,,,0.00,,2013-06-25 14:01:00,
2013-06-25 10:11:00,78.0,74.0,29.98,SW,223,0.0,0.0,87,0.00,,,0.00,,2013-06-25 14:11:00,
2013-06-25 10:23:00,79.0,74.0,29.97,SW,233,0.0,0.0,84,0.00,,,0.00,,2013-06-25 14:23:00,
2013-06-25 10:34:00,80.0,74.0,29.97,SW,221,2.0,3.0,81,0.00,,,0.00,,2013-06-25 14:34:00,
2013-06-25 10:43:00,80.0,72.0,29.97,SW,219,0.0,0.0,78,0.00,,,0.00,,2013-06-25 14:43:00,
2013-06-25 10:53:00,81.0,72.0,29.97,West,271,3.0,6.0,75,0.00,,,0.00,,2013-06-25 14:53:00,
2013-06-25 11:11:00,83.0,71.0,29.97,West,268,1.0,5.0,67,0.00,,,0.00,,2013-06-25 15:11:00,
2013-06-25 11:22:00,84.0,71.0,29.96,SW,234,2.0,7.0,65,0.00,,,0.00,,2013-06-25 15:22:00,
2013-06-25 11:32:00,85.0,70.0,29.96,SW,219,2.0,5.0,62,0.00,,,0.00,,2013-06-25 15:32:00,
2013-06-25 11:44:00,85.0,70.0,29.97,SW,226,0.0,2.0,61,0.00,,,0.00,,2013-06-25 15:44:00,
2013-06-25 11:53:00,86.0,69.0,29.97,WSW,255,3.0,5.0,58,0.00,,,0.00,,2013-06-25 15:53:00,
2013-06-25 13:44:00,88.0,69.0,29.97,West,281,3.0,5.0,53,0.00,,,0.00,,2013-06-25 17:44:00,
2013-06-25 13:53:00,88.0,67.0,29.96,NW,321,2.0,2.0,50,0.00,,,0.00,,2013-06-25 17:53:00,
2013-06-25 14:52:00,91.0,66.0,29.93,WSW,256,2.0,6.0,44,0.00,,,0.00,,2013-06-25 18:52:00,
2013-06-25 15:01:00,91.0,65.0,29.93,West,266,3.0,5.0,43,0.00,,,0.00,,2013-06-25 19:01:00,
2013-06-25 15:53:00,93.0,66.0,29.92,West,264,3.0,7.0,41,0.00,,,0.00,,2013-06-25 19:53:00,
2013-06-25 18:01:00,94.0,64.0,29.87,West,281,0.0,0.0,38,0.00,,,0.00,,2013-06-25 22:01:00,
2013-06-25 18:11:00,93.0,64.0,29.87,WSW,237,0.0,0.0,39,0.00,,,0.00,,2013-06-25 22:11:00,
2013-06-25 21:01:00,86.0,64.0,29.84,WSW,241,0.0,0.0,48,0.00,,,0.00,,2013-06-26 01:01:00,
2013-06-25 21:11:00,86.0,65.0,29.84,WSW,247,0.0,0.0,49,0.00,,,0.00,,2013-06-26 01:11:00,
2013-06-25 21:22:00,85.0,64.0,29.84,SW,217,0.0,3.0,50,0.00,,,0.00,,2013-06-26 01:22:00,
2013-06-25 21:33:00,84.0,64.0,29.84,SW,227,0.0,0.0,52,0.00,,,0.00,,2013-06-26 01:33:00,
2013-06-25 21:43:00,84.0,65.0,29.85,SW,215,0.0,0.0,53,0.00,,,0.00,,2013-06-26 01:43:00,
2013-06-25 21:53:00,83.0,65.0,29.85,SW,215,0.0,0.0,54,0.00,,,0.00,,2013-06-26 01:53:00,
2013-06-25 22:02:00,83.0,65.0,29.85,SW,222,0.0,0.0,55,0.00,,,0.00,,2013-06-26 02:02:00,
2013-06-25 22:43:00,81.0,66.0,29.85,SW,227,0.0,0.0,61,0.00,,,0.00,,2013-06-26 02:43:00,
2013-06-25 22:53:00,81.0,67.0,29.85,WSW,237,2.0,5.0,62,0.00,,,0.00,,2013-06-26 02:53:00,
2013-06-25 23:02:00,80.0,66.0,29.85,SW,230,0.0,3.0,63,0.00,,,0.00,,2013-06-26 03:02:00,
2013-06-25 23:43:00,80.0,68.0,29.85,SSW,213,2.0,3.0,66,0.00,,,0.00,,2013-06-26 03:43:00,
2013-06-25 23:52:00,80.0,68.0,29.86,SW,230,0.0,0.0,66,0.00,,,0.00,,2013-06-26 03:52:00,